createdAt,value
2023-04-17T00:04:11.487Z,9.80
2023-04-17T00:09:15.926Z,9.76
2023-04-17T00:14:17.953Z,9.75
2023-04-17T00:19:19.841Z,9.70
2023-04-17T00:24:23.873Z,9.68
2023-04-17T00:29:27.913Z,9.64
2023-04-17T00:34:34.621Z,9.62
2023-04-17T00:39:36.282Z,9.58
2023-04-17T00:44:38.200Z,9.55
2023-04-17T00:49:42.527Z,9.52
2023-04-17T00:54:44.358Z,9.47
2023-04-17T00:59:46.808Z,9.41
2023-04-17T01:04:48.456Z,9.37
2023-04-17T01:09:52.566Z,9.32
2023-04-17T01:14:55.834Z,9.27
2023-04-17T01:19:59.968Z,9.26
2023-04-17T01:25:08.322Z,9.21
2023-04-17T01:30:14.622Z,9.20
2023-04-17T01:35:27.897Z,9.14
2023-04-17T01:40:29.685Z,9.11
2023-04-17T01:45:34.177Z,9.09
2023-04-17T01:50:35.890Z,9.06
2023-04-17T01:55:39.771Z,9.02
2023-04-17T02:00:49.223Z,8.97
2023-04-17T02:05:52.755Z,8.95
2023-04-17T02:10:59.017Z,8.92
2023-04-17T02:16:06.248Z,8.89
2023-04-17T02:21:09.893Z,8.86
2023-04-17T02:26:13.864Z,8.82
2023-04-17T02:31:24.059Z,8.80
2023-04-17T02:36:27.288Z,8.78
2023-04-17T02:41:33.593Z,8.74
2023-04-17T02:46:35.895Z,8.71
2023-04-17T02:51:40.671Z,8.66
2023-04-17T02:56:42.442Z,8.64
2023-04-17T03:01:45.842Z,8.62
2023-04-17T03:06:49.411Z,8.59
2023-04-17T03:11:53.798Z,8.55
2023-04-17T03:16:55.725Z,8.50
2023-04-17T03:21:57.698Z,8.48
2023-04-17T03:27:04.855Z,8.46
2023-04-17T03:32:15.921Z,8.43
2023-04-17T03:37:17.989Z,8.40
2023-04-17T03:42:19.944Z,8.37
2023-04-17T03:47:27.042Z,8.35
2023-04-17T03:52:31.339Z,8.31
2023-04-17T03:57:34.122Z,8.34
2023-04-17T04:02:39.086Z,8.29
2023-04-17T04:07:41.117Z,8.27
2023-04-17T04:12:48.041Z,8.21
2023-04-17T04:17:53.113Z,8.15
2023-04-17T04:22:57.409Z,8.16
2023-04-17T04:28:01.642Z,8.16
2023-04-17T04:33:06.253Z,8.15
2023-04-17T04:38:14.138Z,8.17
2023-04-17T04:43:22.556Z,8.20
2023-04-17T04:48:28.945Z,8.23
2023-04-17T04:53:30.912Z,8.39
2023-04-17T04:58:35.072Z,8.48
2023-04-17T05:03:41.034Z,8.61
2023-04-17T05:08:45.241Z,8.65
2023-04-17T05:13:49.570Z,8.72
2023-04-17T05:18:59.355Z,8.75
2023-04-17T05:24:29.712Z,8.76
2023-04-17T05:29:33.940Z,8.74
2023-04-17T05:34:36.042Z,8.78
2023-04-17T05:39:39.144Z,8.82
2023-04-17T05:44:42.979Z,8.89
2023-04-17T05:49:44.780Z,8.98
2023-04-17T05:54:46.648Z,9.11
2023-04-17T05:59:49.304Z,9.21
2023-04-17T06:04:54.017Z,9.34
2023-04-17T06:10:01.532Z,9.44
2023-04-17T06:15:09.380Z,9.50
2023-04-17T06:20:14.728Z,9.59
2023-04-17T06:25:19.099Z,9.73
2023-04-17T06:30:23.141Z,10.20
2023-04-17T06:35:28.269Z,10.16
2023-04-17T06:40:41.889Z,10.22
2023-04-17T06:45:43.910Z,10.28
2023-04-17T06:50:48.109Z,10.34
2023-04-17T06:55:52.785Z,10.41
2023-04-17T07:00:59.278Z,10.51
2023-04-17T07:06:03.632Z,10.65
2023-04-17T07:11:07.737Z,10.72
2023-04-17T07:16:12.598Z,10.88
2023-04-17T07:21:14.397Z,10.88
2023-04-17T07:26:16.428Z,11.04
2023-04-17T07:31:22.187Z,11.15
2023-04-17T07:36:24.598Z,11.32
2023-04-17T07:41:28.671Z,11.52
2023-04-17T07:46:30.749Z,11.74
2023-04-17T07:51:32.915Z,11.96
2023-04-17T07:56:37.674Z,12.05
2023-04-17T08:01:41.950Z,12.12
2023-04-17T08:06:43.716Z,12.29
2023-04-17T08:11:56.120Z,12.36
2023-04-17T08:17:02.618Z,12.53
2023-04-17T08:22:06.202Z,12.57
2023-04-17T08:27:12.757Z,12.82
2023-04-17T08:32:15.400Z,13.04
2023-04-17T08:37:17.496Z,13.05
2023-04-17T08:42:21.370Z,13.04
2023-04-17T08:47:23.119Z,13.19
2023-04-17T08:52:25.009Z,13.28
2023-04-17T08:57:28.957Z,13.11
2023-04-17T09:02:33.165Z,13.14
2023-04-17T09:07:34.986Z,13.05
2023-04-17T09:12:41.907Z,13.11
2023-04-17T09:17:48.531Z,13.21
2023-04-17T09:22:59.547Z,13.17
2023-04-17T09:28:14.034Z,13.23
2023-04-17T09:33:18.055Z,13.35
2023-04-17T09:38:40.995Z,13.41
2023-04-17T09:43:43.416Z,13.46
2023-04-17T09:48:46.632Z,13.52
2023-04-17T09:53:49.842Z,13.64
2023-04-17T09:58:54.644Z,13.71
2023-04-17T10:03:57.020Z,13.77
2023-04-17T10:09:01.515Z,13.80
2023-04-17T10:14:11.823Z,13.92
2023-04-17T10:19:33.653Z,13.90
2023-04-17T10:24:40.072Z,14.03
2023-04-17T10:30:00.796Z,13.90
2023-04-17T10:35:17.983Z,13.99
2023-04-17T10:40:22.866Z,13.96
2023-04-17T10:45:24.772Z,14.01
2023-04-17T10:50:32.115Z,14.12
2023-04-17T10:55:34.286Z,14.19
2023-04-17T11:00:38.216Z,14.20
2023-04-17T11:05:48.046Z,14.36
2023-04-17T11:10:53.881Z,14.34
2023-04-17T11:15:58.668Z,14.16
2023-04-17T11:21:04.869Z,14.31
2023-04-17T11:26:15.578Z,14.43
2023-04-17T11:31:18.994Z,14.34
2023-04-17T11:36:22.119Z,14.37
2023-04-17T11:41:36.823Z,14.34
2023-04-17T11:46:43.104Z,14.96
2023-04-17T11:51:49.987Z,15.44
2023-04-17T11:57:02.255Z,16.71
2023-04-17T12:02:08.453Z,17.85
2023-04-17T12:07:24.286Z,18.91
2023-04-17T12:12:25.969Z,19.63
2023-04-17T12:17:30.656Z,19.84
2023-04-17T12:22:33.342Z,19.90
2023-04-17T12:27:37.599Z,20.56
2023-04-17T12:32:39.831Z,20.80
2023-04-17T12:37:44.274Z,21.08
2023-04-17T12:42:49.506Z,21.49
2023-04-17T12:47:58.697Z,21.87
2023-04-17T12:53:02.889Z,21.78
2023-04-17T12:58:14.203Z,22.29
2023-04-17T13:03:16.186Z,23.19
2023-04-17T13:08:17.949Z,23.68
2023-04-17T13:13:22.412Z,23.99
2023-04-17T13:18:26.861Z,23.85
2023-04-17T13:23:29.386Z,24.13
2023-04-17T13:28:33.810Z,25.13
2023-04-17T13:33:40.390Z,25.65
2023-04-17T13:38:42.072Z,26.25
2023-04-17T13:43:48.421Z,26.22
2023-04-17T13:48:50.084Z,27.06
2023-04-17T13:53:54.016Z,26.84
2023-04-17T13:58:58.595Z,27.25
2023-04-17T14:04:00.975Z,27.35
2023-04-17T14:09:03.404Z,28.18
2023-04-17T14:14:05.704Z,28.61
2023-04-17T14:19:14.546Z,28.59
2023-04-17T14:24:19.485Z,28.80
2023-04-17T14:29:21.402Z,29.86
2023-04-17T14:34:25.418Z,29.46
2023-04-17T14:39:28.392Z,28.68
2023-04-17T14:44:34.214Z,28.98
2023-04-17T14:49:38.119Z,29.68
2023-04-17T14:54:39.774Z,30.30
2023-04-17T14:59:44.433Z,29.78
2023-04-17T15:04:47.631Z,30.15
2023-04-17T15:09:49.335Z,30.16
2023-04-17T15:14:53.410Z,29.79
2023-04-17T15:19:58.637Z,29.93
2023-04-17T15:25:02.996Z,29.44
2023-04-17T15:30:08.925Z,29.44
2023-04-17T15:35:13.064Z,29.99
2023-04-17T15:40:16.400Z,29.49
2023-04-17T15:45:20.508Z,29.44
2023-04-17T15:50:27.355Z,29.56
2023-04-17T15:55:33.148Z,29.85
2023-04-17T16:00:37.184Z,28.96
2023-04-17T16:05:38.838Z,29.01
2023-04-17T16:10:42.632Z,28.60
2023-04-17T16:15:45.147Z,27.46
2023-04-17T16:20:47.178Z,24.57
2023-04-17T16:25:56.888Z,24.32
2023-04-17T16:30:58.795Z,23.12
2023-04-17T16:36:03.614Z,23.07
2023-04-17T16:41:10.822Z,21.80
2023-04-17T16:46:23.957Z,20.93
2023-04-17T16:51:33.365Z,20.00
2023-04-17T16:56:38.228Z,19.54
2023-04-17T17:01:42.711Z,18.98
2023-04-17T17:06:46.939Z,18.58
2023-04-17T17:11:53.394Z,18.19
2023-04-17T17:16:58.361Z,17.84
2023-04-17T17:22:02.694Z,18.09
2023-04-17T17:27:04.687Z,17.40
2023-04-17T17:32:09.080Z,16.93
2023-04-17T17:37:10.976Z,16.39
2023-04-17T17:42:12.689Z,15.96
2023-04-17T17:47:16.744Z,15.72
2023-04-17T17:52:18.418Z,15.48
2023-04-17T17:57:22.170Z,15.20
2023-04-17T18:02:26.027Z,14.87
2023-04-17T18:07:27.886Z,14.64
2023-04-17T18:12:34.240Z,14.38
2023-04-17T18:17:41.214Z,14.12
2023-04-17T18:22:46.235Z,13.84
2023-04-17T18:27:48.214Z,14.27
2023-04-17T18:32:50.051Z,14.26
2023-04-17T18:37:53.064Z,13.50
2023-04-17T18:42:56.391Z,13.15
2023-04-17T18:48:00.546Z,12.87
2023-04-17T18:53:04.568Z,12.62
2023-04-17T18:58:06.411Z,12.35
2023-04-17T19:03:10.876Z,12.10
2023-04-17T19:08:13.924Z,11.91
2023-04-17T19:13:17.903Z,11.91
2023-04-17T19:18:19.839Z,11.80
2023-04-17T19:23:21.674Z,11.75
2023-04-17T19:28:24.188Z,11.63
2023-04-17T19:33:28.555Z,11.47
2023-04-17T19:38:31.430Z,11.38
2023-04-17T19:43:33.176Z,11.19
2023-04-17T19:48:41.528Z,11.04
2023-04-17T19:53:46.596Z,11.40
2023-04-17T19:58:48.431Z,10.82
2023-04-17T20:03:52.552Z,10.89
2023-04-17T20:08:59.278Z,11.33
2023-04-17T20:14:04.566Z,10.84
2023-04-17T20:19:06.285Z,10.54
2023-04-17T20:24:10.687Z,10.32
2023-04-17T20:29:15.585Z,10.11
2023-04-17T20:34:19.731Z,10.02
2023-04-17T20:39:21.464Z,9.89
2023-04-17T20:44:25.849Z,9.83
2023-04-17T20:49:31.163Z,9.82
2023-04-17T20:54:40.001Z,9.75
2023-04-17T20:59:44.008Z,9.63
2023-04-17T21:04:45.771Z,9.55
2023-04-17T21:09:49.711Z,9.53
2023-04-17T21:14:54.095Z,10.06
2023-04-17T21:19:56.251Z,9.65
2023-04-17T21:25:00.176Z,9.51
2023-04-17T21:30:04.851Z,9.41
2023-04-17T21:35:13.573Z,9.37
2023-04-17T21:40:17.487Z,9.32
2023-04-17T21:45:19.844Z,9.21
2023-04-17T21:50:23.928Z,9.06
2023-04-17T21:55:25.667Z,8.91
2023-04-17T22:00:29.746Z,8.76
2023-04-17T22:05:31.403Z,8.63
2023-04-17T22:10:37.881Z,8.54
2023-04-17T22:15:42.553Z,8.45
2023-04-17T22:20:46.578Z,8.36
2023-04-17T22:25:48.261Z,8.27
2023-04-17T22:30:51.958Z,8.21
2023-04-17T22:35:58.241Z,8.15
2023-04-17T22:41:00.434Z,8.06
2023-04-17T22:46:04.781Z,7.97
2023-04-17T22:51:09.743Z,7.89
2023-04-17T22:56:15.849Z,7.80
2023-04-17T23:01:19.894Z,7.76
2023-04-17T23:06:25.995Z,7.72
2023-04-17T23:11:30.928Z,7.71
2023-04-17T23:16:34.734Z,7.70
2023-04-17T23:21:41.359Z,7.75
2023-04-17T23:26:47.558Z,7.79
2023-04-17T23:31:51.672Z,7.84
2023-04-17T23:36:55.895Z,7.90
2023-04-17T23:42:05.638Z,7.93
2023-04-17T23:47:11.417Z,7.96
2023-04-17T23:52:15.161Z,7.95
2023-04-17T23:57:17.458Z,7.96
